Time;durP1;ratioP1;P1;durP2;ratioP2;P2;SDS_P1;SDS_P2;PMS_P1;PMS_P2;Temp;Humidity;BMP_temperature;BMP_pressure;BME280_temperature;BME280_humidity;BME280_pressure;Samples;Min_cycle;Max_cycle;Signal;HPM_P1;HPM_P2
2023/07/01 00:01:59;;;;;;;9.27;7.20;;;16.50;80.90;;;;;;5070880;28;20515;-45
2023/07/01 00:04:27;;;;;;;12.13;7.20;;;16.50;81.00;;;;;;5075224;28;20028;-44
2023/07/01 00:06:55;;;;;;;10.10;6.90;;;16.50;80.70;;;;;;5058055;28;20077;-46
2023/07/01 00:09:23;;;;;;;7.85;6.30;;;16.50;80.70;;;;;;5055714;28;20051;-44
2023/07/01 00:11:50;;;;;;;10.18;6.93;;;16.60;80.80;;;;;;5056191;28;20032;-47
2023/07/01 00:14:17;;;;;;;8.95;6.93;;;16.60;81.00;;;;;;5055081;28;20068;-48
2023/07/01 00:16:44;;;;;;;8.88;7.00;;;16.60;80.80;;;;;;5066385;28;20048;-44
2023/07/01 00:19:15;;;;;;;9.32;6.10;;;16.50;80.70;;;;;;5075181;28;20043;-45
2023/07/01 00:21:42;;;;;;;9.05;5.68;;;16.60;80.80;;;;;;5074077;28;20043;-45
2023/07/01 00:24:09;;;;;;;8.48;6.03;;;16.50;80.70;;;;;;5058199;28;20024;-45
2023/07/01 00:26:36;;;;;;;9.98;5.88;;;16.50;80.30;;;;;;5074963;28;20025;-45
2023/07/01 00:29:03;;;;;;;10.20;6.53;;;16.50;80.40;;;;;;5064678;28;20028;-45
2023/07/01 00:31:34;;;;;;;8.43;5.82;;;16.60;80.00;;;;;;5073023;28;20354;-45
2023/07/01 00:34:00;;;;;;;8.27;5.50;;;16.60;79.90;;;;;;5052528;28;20033;-45
2023/07/01 00:36:26;;;;;;;10.20;6.15;;;16.60;79.70;;;;;;5071077;28;20036;-46
2023/07/01 00:38:53;;;;;;;8.07;5.43;;;16.60;79.50;;;;;;5074763;28;20020;-44
2023/07/01 00:41:21;;;;;;;8.68;5.88;;;16.60;79.30;;;;;;5054278;28;20025;-46
2023/07/01 00:43:48;;;;;;;8.00;5.60;;;16.60;79.00;;;;;;5074884;28;20020;-46
2023/07/01 00:46:16;;;;;;;9.13;4.93;;;16.60;78.70;;;;;;5064015;28;20036;-45
2023/07/01 00:48:43;;;;;;;7.78;5.22;;;16.60;78.80;;;;;;5074590;28;20043;-45
2023/07/01 00:51:08;;;;;;;9.98;4.88;;;16.60;78.90;;;;;;5074563;28;20040;-45
2023/07/01 00:53:35;;;;;;;11.13;5.85;;;16.60;79.00;;;;;;5061306;28;20374;-45
2023/07/01 00:56:03;;;;;;;8.18;5.43;;;16.60;79.40;;;;;;5074388;28;20036;-45
2023/07/01 00:58:30;;;;;;;8.68;5.80;;;16.60;79.40;;;;;;5071197;28;20334;-45
2023/07/01 01:01:01;;;;;;;7.72;5.75;;;16.60;79.90;;;;;;5054748;28;20016;-46
2023/07/01 01:03:30;;;;;;;7.78;5.70;;;16.60;79.90;;;;;;5074146;28;20457;-45
2023/07/01 01:06:33;;;;;;;11.10;6.25;;;16.60;80.10;;;;;;5051797;28;20025;-47
2023/07/01 01:09:27;;;;;;;8.80;5.75;;;16.60;80.00;;;;;;5065910;28;20067;-47
2023/07/01 01:11:56;;;;;;;12.57;6.05;;;16.60;79.60;;;;;;5054187;28;20462;-45
2023/07/01 01:14:24;;;;;;;8.38;6.20;;;16.60;79.50;;;;;;5053410;28;20029;-45
2023/07/01 01:16:54;;;;;;;8.90;5.60;;;16.60;79.60;;;;;;5067204;28;20590;-45
2023/07/01 01:19:45;;;;;;;7.95;5.72;;;16.60;79.70;;;;;;5054636;28;20462;-46
2023/07/01 01:22:24;;;;;;;10.10;5.70;;;16.60;79.60;;;;;;5060719;28;20029;-46
2023/07/01 01:24:54;;;;;;;9.15;6.03;;;16.50;79.60;;;;;;5065630;28;20036;-44
2023/07/01 01:27:27;;;;;;;10.20;5.88;;;16.50;79.70;;;;;;5064322;28;20113;-46
2023/07/01 01:29:53;;;;;;;8.88;4.85;;;16.50;79.60;;;;;;5072731;28;20354;-45
2023/07/01 01:32:20;;;;;;;9.25;6.43;;;16.50;79.40;;;;;;5053319;28;20036;-45
2023/07/01 01:34:47;;;;;;;9.75;5.00;;;16.50;78.70;;;;;;5064178;28;20036;-48
2023/07/01 01:37:26;;;;;;;10.80;4.97;;;16.50;78.60;;;;;;5072348;28;20028;-45
2023/07/01 01:40:09;;;;;;;9.93;4.93;;;16.50;78.30;;;;;;5063140;28;20036;-46
2023/07/01 01:42:40;;;;;;;8.25;5.22;;;16.50;78.20;;;;;;5071819;28;20037;-46
2023/07/01 01:45:07;;;;;;;9.52;5.15;;;16.60;78.20;;;;;;5054881;28;20020;-46
2023/07/01 01:47:35;;;;;;;5.80;3.97;;;16.50;78.20;;;;;;5055282;28;20033;-47
2023/07/01 01:50:07;;;;;;;12.02;5.75;;;16.60;77.80;;;;;;5035411;28;20028;-46
2023/07/01 01:52:34;;;;;;;28.13;5.72;;;16.50;77.60;;;;;;5058322;28;20032;-48
2023/07/01 01:55:03;;;;;;;6.15;4.22;;;16.50;77.80;;;;;;5057702;28;20032;-45
2023/07/01 01:57:36;;;;;;;7.50;4.07;;;16.60;78.00;;;;;;5053407;28;20055;-45
2023/07/01 02:00:08;;;;;;;13.63;4.68;;;16.50;77.90;;;;;;5056736;28;20348;-45
2023/07/01 02:02:35;;;;;;;11.60;4.43;;;16.60;77.70;;;;;;5072168;28;20024;-46
2023/07/01 02:05:03;;;;;;;8.75;4.72;;;16.60;77.70;;;;;;5073155;28;20035;-45
2023/07/01 02:07:30;;;;;;;8.10;4.60;;;16.70;77.90;;;;;;5069965;28;20040;-45
2023/07/01 02:09:57;;;;;;;8.95;4.18;;;16.60;77.70;;;;;;5073138;28;20028;-46
2023/07/01 02:12:25;;;;;;;11.30;4.97;;;16.60;77.80;;;;;;5072842;28;20039;-46
2023/07/01 02:14:52;;;;;;;13.75;4.97;;;16.60;77.90;;;;;;5059979;28;20568;-46
2023/07/01 02:17:19;;;;;;;6.40;4.45;;;16.70;77.40;;;;;;5071080;28;20465;-46
2023/07/01 02:19:46;;;;;;;7.60;4.45;;;16.70;77.30;;;;;;5071338;28;20021;-45
2023/07/01 02:22:12;;;;;;;8.10;3.67;;;16.70;76.90;;;;;;5053068;28;20033;-45
2023/07/01 02:24:41;;;;;;;7.68;4.35;;;16.80;77.00;;;;;;5053186;28;20446;-46
2023/07/01 02:27:08;;;;;;;10.32;4.53;;;16.80;76.80;;;;;;5069403;28;20033;-45
2023/07/01 02:29:35;;;;;;;6.63;4.05;;;16.90;76.90;;;;;;5069423;28;20037;-46
2023/07/01 02:32:04;;;;;;;6.45;3.47;;;16.90;76.80;;;;;;5070847;28;20468;-46
2023/07/01 02:34:32;;;;;;;11.88;4.95;;;16.90;76.80;;;;;;5059402;28;20048;-45
2023/07/01 02:36:58;;;;;;;7.25;3.72;;;16.90;76.90;;;;;;5052614;28;20083;-47
2023/07/01 02:39:26;;;;;;;7.13;4.32;;;16.90;76.80;;;;;;5067112;28;20108;-47
2023/07/01 02:41:53;;;;;;;8.73;3.13;;;16.90;76.80;;;;;;5055156;28;20024;-45
2023/07/01 02:44:24;;;;;;;8.98;3.40;;;16.90;77.20;;;;;;5053702;28;20055;-46
2023/07/01 02:46:52;;;;;;;7.07;3.80;;;16.90;77.20;;;;;;5071531;28;20043;-46
2023/07/01 02:49:20;;;;;;;9.57;3.90;;;16.80;77.90;;;;;;5068460;28;20052;-45
2023/07/01 02:51:47;;;;;;;10.38;3.63;;;16.80;78.10;;;;;;5052874;28;20025;-46
2023/07/01 02:54:15;;;;;;;5.97;2.80;;;16.80;77.70;;;;;;5067866;28;20039;-46
2023/07/01 02:56:43;;;;;;;4.95;3.08;;;16.80;77.60;;;;;;5052491;28;20061;-45
2023/07/01 02:59:11;;;;;;;9.05;3.85;;;16.70;77.70;;;;;;5069242;28;20028;-45
2023/07/01 03:01:37;;;;;;;10.68;3.70;;;16.70;77.90;;;;;;5071351;28;20036;-45
2023/07/01 03:04:06;;;;;;;7.93;3.40;;;16.70;78.80;;;;;;5065799;28;20033;-45
2023/07/01 03:06:35;;;;;;;7.00;3.28;;;16.60;79.90;;;;;;5052451;28;20724;-47
2023/07/01 03:09:07;;;;;;;10.75;4.10;;;16.60;81.00;;;;;;5071824;28;20032;-44
2023/07/01 03:11:37;;;;;;;4.70;3.63;;;16.40;82.30;;;;;;5052836;28;20079;-44
2023/07/01 03:14:04;;;;;;;6.40;4.18;;;16.30;83.10;;;;;;5052770;28;20029;-44
2023/07/01 03:16:31;;;;;;;8.05;4.38;;;16.20;83.60;;;;;;5059552;28;20132;-46
2023/07/01 03:19:01;;;;;;;8.95;4.43;;;16.20;83.90;;;;;;5052464;28;20025;-43
2023/07/01 03:21:27;;;;;;;8.73;3.85;;;16.10;84.20;;;;;;5046278;28;20021;-44
2023/07/01 03:23:53;;;;;;;10.13;4.10;;;16.10;84.30;;;;;;5069710;28;20323;-43
2023/07/01 03:26:20;;;;;;;7.80;4.53;;;16.00;84.70;;;;;;5070941;28;20373;-43
2023/07/01 03:28:49;;;;;;;9.02;4.47;;;16.00;85.10;;;;;;5069314;28;20335;-43
2023/07/01 03:31:16;;;;;;;7.72;4.78;;;16.00;85.30;;;;;;5061336;28;20028;-42
2023/07/01 03:33:47;;;;;;;9.27;5.43;;;15.90;85.50;;;;;;5054593;28;20126;-45
2023/07/01 03:36:14;;;;;;;10.68;4.63;;;15.90;85.30;;;;;;5071933;28;20032;-43
2023/07/01 03:38:41;;;;;;;6.97;4.47;;;15.90;85.80;;;;;;5074067;28;20025;-42
2023/07/01 03:41:11;;;;;;;8.75;5.35;;;15.90;85.90;;;;;;5074135;28;20031;-43
2023/07/01 03:43:41;;;;;;;9.18;5.03;;;15.90;85.80;;;;;;5054249;28;20040;-42
2023/07/01 03:46:07;;;;;;;7.63;5.55;;;15.80;86.00;;;;;;5063447;28;20033;-42
2023/07/01 03:48:34;;;;;;;14.02;5.82;;;15.80;86.20;;;;;;5072628;28;20033;-44
2023/07/01 03:51:01;;;;;;;10.18;4.90;;;15.80;86.40;;;;;;5074594;28;20501;-43
2023/07/01 03:53:27;;;;;;;9.68;5.75;;;15.70;86.80;;;;;;5074281;28;20028;-42
2023/07/01 03:55:54;;;;;;;8.45;5.55;;;15.70;86.90;;;;;;5073544;28;20029;-47
2023/07/01 03:58:24;;;;;;;10.82;5.35;;;15.70;87.20;;;;;;5074846;28;20489;-42
2023/07/01 04:00:53;;;;;;;10.27;6.63;;;15.70;87.50;;;;;;5072372;28;20354;-45
2023/07/01 04:03:23;;;;;;;12.18;6.13;;;15.60;87.70;;;;;;5057899;28;20028;-47
2023/07/01 04:05:50;;;;;;;;;;;15.60;88.10;;;;;;5075213;28;20116;-48
2023/07/01 04:08:20;;;;;;;10.05;6.57;;;15.60;88.70;;;;;;5073553;28;20403;-48
2023/07/01 04:10:47;;;;;;;;;;;15.50;88.90;;;;;;5072980;28;20404;-48
2023/07/01 04:13:14;;;;;;;10.43;6.38;;;15.40;89.50;;;;;;5074427;28;19904;-48
2023/07/01 04:15:40;;;;;;;9.90;6.55;;;15.40;89.90;;;;;;5063690;28;20375;-48
2023/07/01 04:18:07;;;;;;;14.13;7.50;;;15.30;90.00;;;;;;5051666;28;20079;-48
2023/07/01 04:20:34;;;;;;;9.75;7.10;;;15.30;90.60;;;;;;5017949;28;20036;-47
2023/07/01 04:23:03;;;;;;;9.95;6.97;;;15.20;90.70;;;;;;5035994;28;20481;-51
2023/07/01 04:25:32;;;;;;;11.55;7.95;;;15.10;91.20;;;;;;5040998;28;20065;-47
2023/07/01 04:28:01;;;;;;;8.32;6.80;;;15.10;91.50;;;;;;5045939;28;20040;-47
2023/07/01 04:30:28;;;;;;;11.43;8.60;;;15.10;91.90;;;;;;5036115;28;20021;-46
2023/07/01 04:32:55;;;;;;;10.93;8.35;;;15.10;92.10;;;;;;5049218;28;20084;-46
2023/07/01 04:35:22;;;;;;;10.32;8.48;;;15.10;92.00;;;;;;5036251;28;20809;-45
2023/07/01 04:37:48;;;;;;;7.50;6.60;;;15.00;92.10;;;;;;5052992;28;20033;-46
2023/07/01 04:40:18;;;;;;;10.88;7.35;;;15.00;92.20;;;;;;5053905;28;20473;-46
2023/07/01 04:42:50;;;;;;;10.63;7.85;;;15.00;92.10;;;;;;5034783;28;20091;-46
2023/07/01 04:45:18;;;;;;;9.68;7.10;;;15.00;92.30;;;;;;5053369;28;20032;-46
2023/07/01 04:47:47;;;;;;;11.20;7.70;;;15.00;92.40;;;;;;5040119;28;20036;-45
2023/07/01 04:50:14;;;;;;;12.13;7.57;;;15.00;92.40;;;;;;5026659;28;20406;-45
2023/07/01 04:52:43;;;;;;;8.73;7.30;;;15.00;92.60;;;;;;5052565;28;20044;-45
2023/07/01 04:55:10;;;;;;;10.82;7.65;;;15.00;92.50;;;;;;5054193;28;20017;-47
2023/07/01 04:57:39;;;;;;;8.38;7.32;;;15.00;92.50;;;;;;5053922;28;20021;-48
2023/07/01 05:00:09;;;;;;;13.82;7.88;;;15.10;92.70;;;;;;5053417;28;20331;-46
2023/07/01 05:02:37;;;;;;;10.15;7.28;;;15.00;92.50;;;;;;5052049;28;20028;-46
2023/07/01 05:05:04;;;;;;;8.95;7.68;;;15.00;92.60;;;;;;5044720;28;20082;-48
2023/07/01 05:07:31;;;;;;;8.40;7.60;;;15.00;92.80;;;;;;5053177;28;20727;-46
2023/07/01 05:09:58;;;;;;;15.05;7.22;;;15.00;92.80;;;;;;5048361;28;20025;-45
2023/07/01 05:12:26;;;;;;;10.10;7.07;;;15.00;92.80;;;;;;5035488;28;20025;-45
2023/07/01 05:14:54;;;;;;;10.75;7.70;;;15.00;92.80;;;;;;5053812;28;20028;-45
2023/07/01 05:17:23;;;;;;;10.90;7.38;;;15.00;93.00;;;;;;5071718;28;20362;-46
2023/07/01 05:19:50;;;;;;;10.30;7.33;;;15.00;93.00;;;;;;5071609;28;20406;-46
2023/07/01 05:22:16;;;;;;;8.43;6.22;;;15.00;92.80;;;;;;5068753;28;20077;-45
2023/07/01 05:24:43;;;;;;;10.00;7.07;;;15.00;93.00;;;;;;5072521;28;20024;-46
2023/07/01 05:27:09;;;;;;;10.07;6.00;;;15.00;92.70;;;;;;5072523;28;20025;-45
2023/07/01 05:29:36;;;;;;;8.07;5.90;;;15.00;92.70;;;;;;5072790;28;20029;-44
2023/07/01 05:32:07;;;;;;;10.68;7.32;;;15.00;92.70;;;;;;5067405;28;20036;-44
2023/07/01 05:34:33;;;;;;;11.15;6.57;;;15.00;92.80;;;;;;5069836;28;20020;-45
2023/07/01 05:37:00;;;;;;;9.85;7.03;;;15.00;92.80;;;;;;5072193;28;20055;-44
2023/07/01 05:39:29;;;;;;;11.07;7.00;;;14.90;92.90;;;;;;5072666;28;20441;-43
2023/07/01 05:41:56;;;;;;;9.05;6.63;;;15.00;93.00;;;;;;5054213;28;20028;-45
2023/07/01 05:44:25;;;;;;;10.02;6.57;;;15.10;93.00;;;;;;5073097;28;20013;-44
2023/07/01 05:46:55;;;;;;;8.98;6.55;;;15.10;92.90;;;;;;5057224;28;20047;-44
2023/07/01 05:49:22;;;;;;;8.93;6.72;;;15.10;93.00;;;;;;5053316;28;20052;-43
2023/07/01 05:51:49;;;;;;;13.48;7.47;;;15.20;93.00;;;;;;5071121;28;20016;-43
2023/07/01 05:54:15;;;;;;;8.68;6.53;;;15.20;92.80;;;;;;5069452;28;20146;-48
2023/07/01 05:56:45;;;;;;;8.85;5.85;;;15.20;92.60;;;;;;5072864;28;20127;-45
2023/07/01 05:59:13;;;;;;;;;;;15.20;92.50;;;;;;5070093;28;20028;-43
2023/07/01 06:01:40;;;;;;;10.18;6.68;;;15.20;92.50;;;;;;5068725;28;19908;-43
2023/07/01 06:04:07;;;;;;;9.07;7.43;;;15.20;92.40;;;;;;5071310;28;20021;-44
2023/07/01 06:06:33;;;;;;;9.15;5.90;;;15.30;92.60;;;;;;5069999;28;20836;-44
2023/07/01 06:08:59;;;;;;;7.88;6.65;;;15.30;92.30;;;;;;5072321;28;20066;-43
2023/07/01 06:11:25;;;;;;;7.07;5.68;;;15.30;92.30;;;;;;5072921;28;20108;-42
2023/07/01 06:13:52;;;;;;;10.95;6.10;;;15.30;92.40;;;;;;5070830;28;20537;-42
2023/07/01 06:16:19;;;;;;;12.70;5.93;;;15.30;92.30;;;;;;5070116;28;20041;-43
2023/07/01 06:18:46;;;;;;;11.50;6.38;;;15.30;92.40;;;;;;5071435;28;20107;-42
2023/07/01 06:21:12;;;;;;;7.75;6.00;;;15.40;92.20;;;;;;5065893;28;20028;-43
2023/07/01 06:23:39;;;;;;;9.82;5.80;;;15.40;92.10;;;;;;5072363;28;20350;-42
2023/07/01 06:26:06;;;;;;;7.80;5.57;;;15.40;92.00;;;;;;5072260;28;20039;-41
2023/07/01 06:28:33;;;;;;;8.93;6.05;;;15.40;91.90;;;;;;5072169;28;20024;-42
2023/07/01 06:31:00;;;;;;;9.95;6.22;;;15.40;91.80;;;;;;5068681;28;20086;-43
2023/07/01 06:33:26;;;;;;;10.65;6.38;;;15.40;92.00;;;;;;5072258;28;20442;-42
2023/07/01 06:35:52;;;;;;;7.18;6.07;;;15.40;92.00;;;;;;5069738;28;20029;-42
2023/07/01 06:38:19;;;;;;;7.78;5.30;;;15.40;91.90;;;;;;5069827;28;20028;-41
2023/07/01 06:40:46;;;;;;;7.38;5.88;;;15.40;91.90;;;;;;5064416;28;20025;-42
2023/07/01 06:43:13;;;;;;;8.52;5.85;;;15.40;91.80;;;;;;5072870;28;20040;-41
2023/07/01 06:45:43;;;;;;;10.25;5.60;;;15.40;91.60;;;;;;5067188;28;20098;-43
2023/07/01 06:48:09;;;;;;;8.05;5.65;;;15.50;91.70;;;;;;5054405;28;20040;-42
2023/07/01 06:50:35;;;;;;;8.50;6.38;;;15.40;91.60;;;;;;5064670;28;20551;-43
2023/07/01 06:53:03;;;;;;;9.23;5.82;;;15.40;91.70;;;;;;5071738;28;20131;-41
2023/07/01 06:55:31;;;;;;;9.32;6.80;;;15.50;91.70;;;;;;5065448;28;20108;-41
2023/07/01 06:58:04;;;;;;;11.88;6.22;;;15.50;91.70;;;;;;5052476;28;20178;-42
2023/07/01 07:00:31;;;;;;;8.60;5.80;;;15.50;91.60;;;;;;5059757;28;20021;-43
2023/07/01 07:02:58;;;;;;;8.18;6.28;;;15.60;91.50;;;;;;5072188;28;20028;-41
2023/07/01 07:05:25;;;;;;;9.43;6.50;;;15.60;91.70;;;;;;5071258;28;20050;-41
2023/07/01 07:07:52;;;;;;;8.23;6.00;;;15.60;91.60;;;;;;5068661;28;20028;-41
2023/07/01 07:10:22;;;;;;;11.45;6.28;;;15.70;91.30;;;;;;5069885;28;20025;-44
2023/07/01 07:12:49;;;;;;;9.70;6.88;;;15.70;91.30;;;;;;5074788;28;20032;-41
2023/07/01 07:15:15;;;;;;;8.38;6.10;;;15.60;91.50;;;;;;5048943;28;20064;-42
2023/07/01 07:17:42;;;;;;;7.72;6.40;;;15.80;91.60;;;;;;5049984;28;20080;-41
2023/07/01 07:20:09;;;;;;;8.95;5.88;;;15.80;91.70;;;;;;5055448;28;20025;-41
2023/07/01 07:22:35;;;;;;;9.65;6.60;;;15.90;91.60;;;;;;5050018;28;20156;-41
2023/07/01 07:25:01;;;;;;;9.95;6.18;;;15.90;91.20;;;;;;5037883;28;20560;-41
2023/07/01 07:27:26;;;;;;;8.38;6.00;;;16.00;91.30;;;;;;5052285;28;20463;-45
2023/07/01 07:29:53;;;;;;;9.30;6.55;;;16.00;91.00;;;;;;5054582;28;20071;-46
2023/07/01 07:32:20;;;;;;;8.05;6.15;;;16.10;91.30;;;;;;5045661;28;20036;-46
2023/07/01 07:34:49;;;;;;;10.23;6.70;;;16.10;91.20;;;;;;5046422;28;20203;-46
2023/07/01 07:37:18;;;;;;;19.15;7.15;;;16.20;91.40;;;;;;5052102;28;20032;-48
2023/07/01 07:39:45;;;;;;;7.90;5.43;;;16.20;91.50;;;;;;5044122;28;20037;-48
2023/07/01 07:42:12;;;;;;;9.65;6.32;;;16.30;91.50;;;;;;5047938;28;20280;-45
2023/07/01 07:44:43;;;;;;;6.43;5.82;;;16.20;91.50;;;;;;5044520;28;20028;-47
2023/07/01 07:47:10;;;;;;;7.28;6.20;;;16.20;91.10;;;;;;5044000;28;20061;-46
2023/07/01 07:49:35;;;;;;;8.93;6.32;;;16.20;91.50;;;;;;5046498;28;20058;-44
2023/07/01 07:52:03;;;;;;;8.65;6.57;;;16.20;91.20;;;;;;5051775;28;20597;-45
2023/07/01 07:54:30;;;;;;;11.45;6.32;;;16.20;91.30;;;;;;5043209;28;20017;-47
2023/07/01 07:56:59;;;;;;;8.73;5.97;;;16.30;91.60;;;;;;5052906;28;20512;-48
2023/07/01 07:59:28;;;;;;;9.50;6.47;;;16.30;91.70;;;;;;5054012;28;20029;-47
2023/07/01 08:01:57;;;;;;;7.25;6.40;;;16.40;91.80;;;;;;5054424;28;20029;-47
2023/07/01 08:04:25;;;;;;;9.17;7.53;;;16.40;91.90;;;;;;5045428;28;20530;-50
2023/07/01 08:06:54;;;;;;;10.45;6.93;;;16.50;91.80;;;;;;5048737;28;20036;-46
2023/07/01 08:09:20;;;;;;;8.75;6.68;;;16.50;91.80;;;;;;5051558;28;20083;-48
2023/07/01 08:11:47;;;;;;;7.97;6.47;;;16.60;91.90;;;;;;5050166;28;20057;-50
2023/07/01 08:14:12;;;;;;;8.43;7.00;;;16.50;91.60;;;;;;5043816;28;20589;-47
2023/07/01 08:16:42;;;;;;;10.85;6.60;;;16.60;91.70;;;;;;5062831;28;20163;-56
2023/07/01 08:19:09;;;;;;;9.15;6.50;;;16.60;91.60;;;;;;5071628;28;20031;-49
2023/07/01 08:21:37;;;;;;;7.22;6.50;;;16.60;91.60;;;;;;5067436;28;20305;-46
2023/07/01 08:24:07;;;;;;;9.45;7.00;;;16.60;91.60;;;;;;5070362;28;20033;-50
2023/07/01 08:26:34;;;;;;;;;;;16.60;91.70;;;;;;5071751;28;20365;-47
2023/07/01 08:29:01;;;;;;;8.77;6.28;;;16.60;92.10;;;;;;5072471;28;19912;-45
2023/07/01 08:31:31;;;;;;;9.40;6.97;;;16.60;92.10;;;;;;5066799;28;20087;-44
2023/07/01 08:33:58;;;;;;;9.40;6.88;;;16.50;91.90;;;;;;5055568;28;20029;-45
2023/07/01 08:36:27;;;;;;;8.88;6.82;;;16.60;92.30;;;;;;5066395;28;20039;-44
2023/07/01 08:38:55;;;;;;;7.03;6.17;;;16.50;92.10;;;;;;5070023;28;20024;-44
2023/07/01 08:41:24;;;;;;;10.13;7.35;;;16.50;92.30;;;;;;5067577;28;20036;-44
2023/07/01 08:43:55;;;;;;;7.40;6.68;;;16.40;92.40;;;;;;5067412;28;20032;-45
2023/07/01 08:46:23;;;;;;;8.68;5.63;;;16.50;92.30;;;;;;5067416;28;20036;-44
2023/07/01 08:48:54;;;;;;;9.50;7.45;;;16.40;92.60;;;;;;5070852;28;20040;-43
2023/07/01 08:51:33;;;;;;;9.52;6.72;;;16.50;92.70;;;;;;5069665;28;20037;-43
2023/07/01 08:54:02;;;;;;;7.80;6.93;;;16.50;92.60;;;;;;5071202;28;20438;-42
2023/07/01 08:56:28;;;;;;;8.85;7.07;;;16.50;92.70;;;;;;5066412;28;20462;-43
2023/07/01 08:58:55;;;;;;;9.50;7.30;;;16.80;93.10;;;;;;5061490;28;20578;-42
2023/07/01 09:01:22;;;;;;;8.77;6.78;;;16.90;92.90;;;;;;5068647;28;20032;-43
2023/07/01 09:03:52;;;;;;;7.22;6.20;;;17.10;92.90;;;;;;5071101;28;20147;-42
2023/07/01 09:06:20;;;;;;;7.93;6.47;;;17.10;92.50;;;;;;5071791;28;20064;-42
2023/07/01 09:08:47;;;;;;;6.88;6.18;;;17.20;92.00;;;;;;5068272;28;20036;-42
2023/07/01 09:11:21;;;;;;;6.63;5.68;;;17.10;92.00;;;;;;5065478;28;20032;-44
2023/07/01 09:13:55;;;;;;;6.45;5.53;;;17.10;92.20;;;;;;5069468;28;20118;-44
2023/07/01 09:16:33;;;;;;;7.53;5.90;;;17.20;92.60;;;;;;5071100;28;20052;-43
2023/07/01 09:19:12;;;;;;;7.97;5.97;;;17.40;92.40;;;;;;5068283;28;20025;-45
2023/07/01 09:21:38;;;;;;;7.53;5.75;;;17.40;92.00;;;;;;5070224;28;20473;-42
2023/07/01 09:24:06;;;;;;;6.72;6.13;;;17.40;91.80;;;;;;5071855;28;20028;-44
2023/07/01 09:26:35;;;;;;;7.47;6.22;;;17.40;91.80;;;;;;5073129;28;20028;-43
2023/07/01 09:29:15;;;;;;;7.32;6.63;;;17.40;91.80;;;;;;5069972;28;20032;-46
2023/07/01 09:31:47;;;;;;;8.10;5.55;;;17.40;91.60;;;;;;5067832;28;20047;-41
2023/07/01 09:34:16;;;;;;;6.97;6.18;;;17.40;91.80;;;;;;5072337;28;20059;-42
2023/07/01 09:36:44;;;;;;;7.35;6.20;;;17.40;91.80;;;;;;5053802;28;20036;-42
2023/07/01 09:39:11;;;;;;;6.07;5.47;;;17.50;91.90;;;;;;5060536;28;20032;-42
2023/07/01 09:41:38;;;;;;;7.00;5.88;;;17.40;91.60;;;;;;5071396;28;20029;-41
2023/07/01 09:44:18;;;;;;;8.18;6.90;;;17.40;91.80;;;;;;5069765;28;20044;-42
2023/07/01 09:46:50;;;;;;;;;;;17.40;92.00;;;;;;5055941;28;20040;-42
2023/07/01 09:49:18;;;;;;;6.60;5.75;;;17.40;92.30;;;;;;5070878;28;20003;-41
2023/07/01 09:51:52;;;;;;;6.35;5.47;;;17.50;92.20;;;;;;5072021;28;20138;-41
2023/07/01 09:54:30;;;;;;;6.88;5.30;;;17.60;92.10;;;;;;5066408;28;20099;-42
2023/07/01 09:56:59;;;;;;;6.00;5.35;;;17.50;91.90;;;;;;5067589;28;20017;-43
2023/07/01 09:59:26;;;;;;;5.60;5.00;;;17.60;92.20;;;;;;5069542;28;20022;-42
2023/07/01 10:01:57;;;;;;;7.60;6.28;;;17.70;92.00;;;;;;5064802;28;20040;-43
2023/07/01 10:04:28;;;;;;;6.63;5.88;;;17.80;92.00;;;;;;5070636;28;20027;-42
2023/07/01 10:06:55;;;;;;;5.85;4.82;;;17.80;92.00;;;;;;5069996;28;20025;-45
2023/07/01 10:09:23;;;;;;;5.90;5.30;;;17.80;91.60;;;;;;5069865;28;20074;-45
2023/07/01 10:11:56;;;;;;;6.90;5.43;;;17.90;92.10;;;;;;5049934;28;20036;-43
2023/07/01 10:14:25;;;;;;;7.90;6.13;;;17.90;91.90;;;;;;5064247;28;20059;-43
2023/07/01 10:16:52;;;;;;;5.87;5.20;;;18.00;91.60;;;;;;5069793;28;20072;-42
2023/07/01 10:19:29;;;;;;;7.43;6.40;;;18.10;91.90;;;;;;5068914;28;20016;-43
2023/07/01 10:22:29;;;;;;;6.47;5.85;;;18.40;92.20;;;;;;5061527;28;20024;-42
2023/07/01 10:25:03;;;;;;;6.00;5.40;;;18.40;91.70;;;;;;5068676;28;20131;-43
2023/07/01 10:27:44;;;;;;;6.72;5.57;;;18.40;91.70;;;;;;5068298;28;20346;-45
2023/07/01 10:30:15;;;;;;;7.50;5.05;;;18.30;90.80;;;;;;5064247;28;20100;-44
2023/07/01 10:32:43;;;;;;;6.07;5.20;;;18.30;90.90;;;;;;5066073;28;20125;-43
2023/07/01 10:35:14;;;;;;;6.18;5.57;;;18.20;91.00;;;;;;5069099;28;20028;-42
2023/07/01 10:37:41;;;;;;;8.18;6.43;;;18.20;91.50;;;;;;5062755;28;20056;-42
2023/07/01 10:40:31;;;;;;;5.43;4.93;;;18.20;91.40;;;;;;5066386;28;20028;-44
2023/07/01 10:43:26;;;;;;;6.32;5.72;;;18.30;91.60;;;;;;5068243;28;20048;-42
2023/07/01 10:46:27;;;;;;;6.50;5.80;;;18.40;91.90;;;;;;5059583;28;20389;-42
2023/07/01 10:49:02;;;;;;;6.97;6.25;;;18.50;91.70;;;;;;5067921;28;20020;-43
2023/07/01 10:51:33;;;;;;;6.68;6.07;;;18.60;91.30;;;;;;5073676;28;20025;-42
2023/07/01 10:54:04;;;;;;;6.65;6.05;;;18.60;90.90;;;;;;5052667;28;20031;-42
2023/07/01 10:57:07;;;;;;;8.63;6.95;;;18.60;90.90;;;;;;5068388;28;20031;-42
2023/07/01 10:59:34;;;;;;;7.43;6.47;;;18.70;91.10;;;;;;5066128;28;20474;-42
2023/07/01 11:02:01;;;;;;;6.47;5.88;;;18.80;91.10;;;;;;5072464;28;20438;-46
2023/07/01 11:04:55;;;;;;;6.88;5.88;;;18.90;90.30;;;;;;5071923;28;20253;-43
2023/07/01 11:07:25;;;;;;;7.72;6.10;;;18.90;90.70;;;;;;5069155;28;20038;-44
2023/07/01 11:09:53;;;;;;;5.68;5.07;;;18.90;90.30;;;;;;5071810;28;20818;-43
2023/07/01 11:12:21;;;;;;;6.18;5.57;;;19.00;90.50;;;;;;5073763;28;20111;-43
2023/07/01 11:14:47;;;;;;;7.63;5.95;;;18.90;90.50;;;;;;5075017;28;20050;-43
2023/07/01 11:17:19;;;;;;;6.22;5.32;;;19.00;90.40;;;;;;5055543;28;20371;-43
2023/07/01 11:19:54;;;;;;;6.88;6.05;;;19.00;90.60;;;;;;5070695;28;20020;-43
2023/07/01 11:22:21;;;;;;;5.93;5.32;;;19.20;90.40;;;;;;5069854;28;20381;-43
2023/07/01 11:24:47;;;;;;;6.25;5.18;;;19.30;89.60;;;;;;5071137;28;20025;-45
2023/07/01 11:27:17;;;;;;;5.82;5.05;;;19.30;89.10;;;;;;5074397;28;20037;-45
2023/07/01 11:29:44;;;;;;;5.20;4.70;;;19.20;89.50;;;;;;5073392;28;20029;-46
2023/07/01 11:32:14;;;;;;;5.28;4.70;;;19.20;89.00;;;;;;5071626;28;20085;-45
2023/07/01 11:34:42;;;;;;;5.20;4.70;;;19.20;89.20;;;;;;5074411;28;20066;-46
2023/07/01 11:37:09;;;;;;;6.60;4.63;;;19.10;89.30;;;;;;5072900;28;20081;-46
2023/07/01 11:39:45;;;;;;;6.22;4.28;;;19.10;89.20;;;;;;5063312;28;20021;-46
2023/07/01 11:42:12;;;;;;;6.68;4.32;;;19.10;89.30;;;;;;5067982;28;20040;-46
2023/07/01 11:44:39;;;;;;;5.03;4.53;;;19.20;89.10;;;;;;5068355;28;20130;-46
2023/07/01 11:47:13;;;;;;;4.53;3.92;;;19.20;88.60;;;;;;5073296;28;20021;-46
2023/07/01 11:49:39;;;;;;;5.90;4.45;;;19.20;88.90;;;;;;5070786;28;20033;-51
2023/07/01 11:52:21;;;;;;;5.72;3.97;;;19.30;88.70;;;;;;5072712;28;20141;-46
2023/07/01 11:54:52;;;;;;;4.70;4.20;;;19.20;88.90;;;;;;5063531;28;20332;-47
2023/07/01 11:57:37;;;;;;;5.15;4.65;;;19.20;88.70;;;;;;5067649;28;20108;-47
2023/07/01 12:00:05;;;;;;;6.18;4.65;;;19.10;88.80;;;;;;5074084;28;20037;-46
2023/07/01 12:02:33;;;;;;;5.68;5.18;;;19.00;89.30;;;;;;5061592;28;20417;-48
2023/07/01 12:05:01;;;;;;;5.57;4.97;;;19.10;89.50;;;;;;5070831;28;20025;-46
2023/07/01 12:07:27;;;;;;;9.05;5.75;;;19.20;89.80;;;;;;5071789;28;20108;-46
2023/07/01 12:09:53;;;;;;;6.57;5.70;;;19.20;89.80;;;;;;5071100;28;20123;-46
2023/07/01 12:12:36;;;;;;;6.40;5.55;;;19.40;90.50;;;;;;5066010;28;20082;-46
2023/07/01 12:15:03;;;;;;;5.57;5.03;;;19.50;89.70;;;;;;5069412;28;20033;-46
2023/07/01 12:17:30;;;;;;;5.85;5.25;;;19.70;89.70;;;;;;5069532;28;20081;-46
2023/07/01 12:19:58;;;;;;;6.22;5.63;;;19.80;89.30;;;;;;5071791;28;20020;-47
2023/07/01 12:22:28;;;;;;;7.70;4.70;;;19.90;89.20;;;;;;5056974;28;20103;-42
2023/07/01 12:24:55;;;;;;;5.38;4.88;;;19.80;89.30;;;;;;5073950;28;20082;-41
2023/07/01 12:27:22;;;;;;;5.30;4.80;;;19.60;89.40;;;;;;5068380;28;20024;-43
2023/07/01 12:29:50;;;;;;;6.18;5.57;;;19.40;89.60;;;;;;5072344;28;20450;-43
2023/07/01 12:32:16;;;;;;;6.63;6.03;;;19.30;89.90;;;;;;5060077;28;20040;-42
2023/07/01 12:34:43;;;;;;;6.70;6.10;;;19.10;90.00;;;;;;5072299;28;20051;-42
2023/07/01 12:37:10;;;;;;;6.75;6.05;;;19.00;90.70;;;;;;5052731;28;20036;-43
2023/07/01 12:39:40;;;;;;;6.05;5.15;;;19.00;90.90;;;;;;5072398;28;20045;-42
2023/07/01 12:42:08;;;;;;;7.10;6.28;;;19.00;91.20;;;;;;5072254;28;20025;-42
2023/07/01 12:44:35;;;;;;;6.80;5.63;;;19.00;91.60;;;;;;5055776;28;20085;-42
2023/07/01 12:47:01;;;;;;;6.97;5.47;;;19.10;91.60;;;;;;5069193;28;20024;-43
2023/07/01 12:49:27;;;;;;;5.47;4.80;;;19.00;91.40;;;;;;5072054;28;20103;-43
2023/07/01 12:51:54;;;;;;;4.88;4.15;;;19.00;91.50;;;;;;5069374;28;20442;-43
2023/07/01 12:54:24;;;;;;;5.85;5.25;;;19.00;91.60;;;;;;5059215;28;20438;-43
2023/07/01 12:56:53;;;;;;;5.07;4.57;;;19.00;91.80;;;;;;5073176;28;20331;-45